sensor_id;sensor_type;location;lat;lon;timestamp;temperature;humidity
8709;DHT22;4391;48.678;9.280;2023-12-07T00:01:35;1.00;99.90
8709;DHT22;4391;48.678;9.280;2023-12-07T00:04:03;1.00;99.90
8709;DHT22;4391;48.678;9.280;2023-12-07T00:06:30;1.00;99.90
8709;DHT22;4391;48.678;9.280;2023-12-07T00:08:57;1.10;99.90
8709;DHT22;4391;48.678;9.280;2023-12-07T00:11:27;1.00;99.90
8709;DHT22;4391;48.678;9.280;2023-12-07T00:13:54;1.10;99.90
8709;DHT22;4391;48.678;9.280;2023-12-07T00:16:21;1.10;99.90
8709;DHT22;4391;48.678;9.280;2023-12-07T00:18:48;1.10;99.90
8709;DHT22;4391;48.678;9.280;2023-12-07T00:21:14;1.20;99.90
8709;DHT22;4391;48.678;9.280;2023-12-07T00:23:41;1.20;99.90
8709;DHT22;4391;48.678;9.280;2023-12-07T00:26:08;1.30;97.50
8709;DHT22;4391;48.678;9.280;2023-12-07T00:28:37;1.30;87.70
8709;DHT22;4391;48.678;9.280;2023-12-07T00:31:04;1.30;82.80
8709;DHT22;4391;48.678;9.280;2023-12-07T00:33:31;1.30;91.10
8709;DHT22;4391;48.678;9.280;2023-12-07T00:35:58;1.40;85.40
8709;DHT22;4391;48.678;9.280;2023-12-07T00:38:25;1.50;62.50
8709;DHT22;4391;48.678;9.280;2023-12-07T00:40:52;1.50;48.60
8709;DHT22;4391;48.678;9.280;2023-12-07T00:43:18;1.40;51.10
8709;DHT22;4391;48.678;9.280;2023-12-07T00:45:47;1.40;59.70
8709;DHT22;4391;48.678;9.280;2023-12-07T00:48:13;1.40;61.00
8709;DHT22;4391;48.678;9.280;2023-12-07T00:50:40;1.50;56.90
8709;DHT22;4391;48.678;9.280;2023-12-07T00:53:07;1.50;56.80
8709;DHT22;4391;48.678;9.280;2023-12-07T00:55:34;1.50;53.80
8709;DHT22;4391;48.678;9.280;2023-12-07T00:58:01;1.40;58.40
8709;DHT22;4391;48.678;9.280;2023-12-07T01:00:28;1.40;76.30
8709;DHT22;4391;48.678;9.280;2023-12-07T01:02:56;1.40;71.80
8709;DHT22;4391;48.678;9.280;2023-12-07T01:05:23;1.30;78.40
8709;DHT22;4391;48.678;9.280;2023-12-07T01:07:50;1.30;86.00
8709;DHT22;4391;48.678;9.280;2023-12-07T01:10:17;1.30;98.30
8709;DHT22;4391;48.678;9.280;2023-12-07T01:12:44;1.30;99.90
8709;DHT22;4391;48.678;9.280;2023-12-07T01:15:12;1.30;99.60
8709;DHT22;4391;48.678;9.280;2023-12-07T01:17:39;1.30;97.10
8709;DHT22;4391;48.678;9.280;2023-12-07T01:20:08;1.30;94.60
8709;DHT22;4391;48.678;9.280;2023-12-07T01:22:39;1.30;93.30
8709;DHT22;4391;48.678;9.280;2023-12-07T01:25:06;1.30;90.50
8709;DHT22;4391;48.678;9.280;2023-12-07T01:27:34;1.30;90.40
8709;DHT22;4391;48.678;9.280;2023-12-07T01:30:00;1.30;86.70
8709;DHT22;4391;48.678;9.280;2023-12-07T01:32:28;1.30;86.10
8709;DHT22;4391;48.678;9.280;2023-12-07T01:34:55;1.40;90.70
8709;DHT22;4391;48.678;9.280;2023-12-07T01:37:23;1.40;92.30
8709;DHT22;4391;48.678;9.280;2023-12-07T01:39:50;1.40;89.60
8709;DHT22;4391;48.678;9.280;2023-12-07T01:42:17;1.40;91.20
8709;DHT22;4391;48.678;9.280;2023-12-07T01:44:44;1.30;86.90
8709;DHT22;4391;48.678;9.280;2023-12-07T01:47:11;1.30;94.40
8709;DHT22;4391;48.678;9.280;2023-12-07T01:49:38;1.20;93.00
8709;DHT22;4391;48.678;9.280;2023-12-07T01:52:06;1.10;94.70
8709;DHT22;4391;48.678;9.280;2023-12-07T01:54:36;1.10;98.80
8709;DHT22;4391;48.678;9.280;2023-12-07T01:57:03;0.90;98.70
8709;DHT22;4391;48.678;9.280;2023-12-07T01:59:31;0.80;99.90
8709;DHT22;4391;48.678;9.280;2023-12-07T02:01:58;0.70;99.90
8709;DHT22;4391;48.678;9.280;2023-12-07T02:04:24;0.70;99.90
8709;DHT22;4391;48.678;9.280;2023-12-07T02:06:53;0.60;99.90
8709;DHT22;4391;48.678;9.280;2023-12-07T02:09:20;0.50;99.90
8709;DHT22;4391;48.678;9.280;2023-12-07T02:11:49;0.50;99.90
8709;DHT22;4391;48.678;9.280;2023-12-07T02:14:16;0.60;99.90
8709;DHT22;4391;48.678;9.280;2023-12-07T02:16:50;0.60;99.90
8709;DHT22;4391;48.678;9.280;2023-12-07T02:19:38;0.70;99.90
8709;DHT22;4391;48.678;9.280;2023-12-07T02:22:17;0.80;99.90
8709;DHT22;4391;48.678;9.280;2023-12-07T02:24:52;0.90;99.90
8709;DHT22;4391;48.678;9.280;2023-12-07T02:27:34;0.90;99.90
8709;DHT22;4391;48.678;9.280;2023-12-07T02:30:01;1.00;99.90
8709;DHT22;4391;48.678;9.280;2023-12-07T02:32:29;1.10;90.60
8709;DHT22;4391;48.678;9.280;2023-12-07T02:34:56;1.20;57.40
8709;DHT22;4391;48.678;9.280;2023-12-07T02:37:26;1.20;48.80
8709;DHT22;4391;48.678;9.280;2023-12-07T02:39:55;1.20;44.00
8709;DHT22;4391;48.678;9.280;2023-12-07T02:42:23;1.10;43.70
8709;DHT22;4391;48.678;9.280;2023-12-07T02:44:53;1.10;41.40
8709;DHT22;4391;48.678;9.280;2023-12-07T02:47:20;1.20;33.90
8709;DHT22;4391;48.678;9.280;2023-12-07T02:49:47;1.20;29.80
8709;DHT22;4391;48.678;9.280;2023-12-07T02:52:14;1.20;23.20
8709;DHT22;4391;48.678;9.280;2023-12-07T02:54:41;1.10;26.00
8709;DHT22;4391;48.678;9.280;2023-12-07T02:57:07;1.10;27.60
8709;DHT22;4391;48.678;9.280;2023-12-07T02:59:34;1.10;24.30
8709;DHT22;4391;48.678;9.280;2023-12-07T03:02:03;1.00;18.90
8709;DHT22;4391;48.678;9.280;2023-12-07T03:04:30;1.00;24.70
8709;DHT22;4391;48.678;9.280;2023-12-07T03:06:57;1.00;22.70
8709;DHT22;4391;48.678;9.280;2023-12-07T03:09:24;1.00;14.60
8709;DHT22;4391;48.678;9.280;2023-12-07T03:11:51;1.00;9.70
8709;DHT22;4391;48.678;9.280;2023-12-07T03:14:18;0.90;5.50
8709;DHT22;4391;48.678;9.280;2023-12-07T03:16:45;0.80;7.00
8709;DHT22;4391;48.678;9.280;2023-12-07T03:19:14;0.80;21.80
8709;DHT22;4391;48.678;9.280;2023-12-07T03:21:41;0.80;16.60
8709;DHT22;4391;48.678;9.280;2023-12-07T03:24:10;0.80;17.30
8709;DHT22;4391;48.678;9.280;2023-12-07T03:26:38;0.60;16.30
8709;DHT22;4391;48.678;9.280;2023-12-07T03:29:04;0.40;31.90
8709;DHT22;4391;48.678;9.280;2023-12-07T03:31:31;0.30;63.00
8709;DHT22;4391;48.678;9.280;2023-12-07T03:33:58;0.10;64.50
8709;DHT22;4391;48.678;9.280;2023-12-07T03:36:28;-0.10;81.30
8709;DHT22;4391;48.678;9.280;2023-12-07T03:38:54;-0.30;95.00
8709;DHT22;4391;48.678;9.280;2023-12-07T03:41:21;-0.40;99.90
8709;DHT22;4391;48.678;9.280;2023-12-07T03:43:48;-0.50;99.90
8709;DHT22;4391;48.678;9.280;2023-12-07T03:46:15;-0.70;99.90
8709;DHT22;4391;48.678;9.280;2023-12-07T03:48:42;-0.80;99.90
8709;DHT22;4391;48.678;9.280;2023-12-07T03:51:12;-0.90;99.90
8709;DHT22;4391;48.678;9.280;2023-12-07T03:53:41;-1.00;99.90
8709;DHT22;4391;48.678;9.280;2023-12-07T03:56:09;-1.10;99.90
8709;DHT22;4391;48.678;9.280;2023-12-07T03:58:35;-1.00;99.90
8709;DHT22;4391;48.678;9.280;2023-12-07T04:01:02;-1.10;99.90
8709;DHT22;4391;48.678;9.280;2023-12-07T04:03:29;-1.10;99.90
8709;DHT22;4391;48.678;9.280;2023-12-07T04:05:56;-1.00;99.90
8709;DHT22;4391;48.678;9.280;2023-12-07T04:08:23;-0.80;99.90
8709;DHT22;4391;48.678;9.280;2023-12-07T04:10:51;-0.70;99.90
8709;DHT22;4391;48.678;9.280;2023-12-07T04:13:18;-0.60;99.90
8709;DHT22;4391;48.678;9.280;2023-12-07T04:15:45;-0.60;99.90
8709;DHT22;4391;48.678;9.280;2023-12-07T04:18:12;-0.60;99.90
8709;DHT22;4391;48.678;9.280;2023-12-07T04:20:38;-0.50;99.90
8709;DHT22;4391;48.678;9.280;2023-12-07T04:23:05;-0.60;99.90
8709;DHT22;4391;48.678;9.280;2023-12-07T04:25:32;-0.60;99.90
8709;DHT22;4391;48.678;9.280;2023-12-07T04:28:01;-0.70;99.90
8709;DHT22;4391;48.678;9.280;2023-12-07T04:30:27;-0.70;99.90
8709;DHT22;4391;48.678;9.280;2023-12-07T04:32:54;-0.70;99.90
8709;DHT22;4391;48.678;9.280;2023-12-07T04:35:21;-0.70;99.90
8709;DHT22;4391;48.678;9.280;2023-12-07T04:37:48;-0.70;99.90
8709;DHT22;4391;48.678;9.280;2023-12-07T04:40:15;-0.70;99.90
8709;DHT22;4391;48.678;9.280;2023-12-07T04:42:42;-0.80;99.90
8709;DHT22;4391;48.678;9.280;2023-12-07T04:45:10;-0.80;99.90
8709;DHT22;4391;48.678;9.280;2023-12-07T04:47:37;-0.80;99.90
8709;DHT22;4391;48.678;9.280;2023-12-07T04:50:04;-0.80;99.90
8709;DHT22;4391;48.678;9.280;2023-12-07T04:52:31;-0.80;99.90
8709;DHT22;4391;48.678;9.280;2023-12-07T04:54:59;-0.80;99.90
8709;DHT22;4391;48.678;9.280;2023-12-07T04:57:26;-0.80;99.90
8709;DHT22;4391;48.678;9.280;2023-12-07T04:59:52;-0.80;99.90
8709;DHT22;4391;48.678;9.280;2023-12-07T05:02:20;-0.80;99.90
8709;DHT22;4391;48.678;9.280;2023-12-07T05:04:48;-0.80;99.90
8709;DHT22;4391;48.678;9.280;2023-12-07T05:07:15;-0.90;99.90
8709;DHT22;4391;48.678;9.280;2023-12-07T05:09:41;-0.90;99.90
8709;DHT22;4391;48.678;9.280;2023-12-07T05:12:08;-0.90;99.90
8709;DHT22;4391;48.678;9.280;2023-12-07T05:14:35;-0.90;99.90
8709;DHT22;4391;48.678;9.280;2023-12-07T05:17:02;-0.90;99.90
8709;DHT22;4391;48.678;9.280;2023-12-07T05:19:32;-0.90;99.90
8709;DHT22;4391;48.678;9.280;2023-12-07T05:21:58;-0.90;99.90
8709;DHT22;4391;48.678;9.280;2023-12-07T05:24:25;-0.90;99.90
8709;DHT22;4391;48.678;9.280;2023-12-07T05:26:52;-0.90;99.90
8709;DHT22;4391;48.678;9.280;2023-12-07T05:29:19;-0.80;99.90
8709;DHT22;4391;48.678;9.280;2023-12-07T05:31:48;-0.60;99.90
8709;DHT22;4391;48.678;9.280;2023-12-07T05:34:15;-0.60;99.90
8709;DHT22;4391;48.678;9.280;2023-12-07T05:36:44;-0.60;99.90
8709;DHT22;4391;48.678;9.280;2023-12-07T05:39:11;-0.70;99.90
8709;DHT22;4391;48.678;9.280;2023-12-07T05:41:38;-0.80;99.90
8709;DHT22;4391;48.678;9.280;2023-12-07T05:44:05;-0.90;99.90
8709;DHT22;4391;48.678;9.280;2023-12-07T05:46:33;-1.00;99.90
8709;DHT22;4391;48.678;9.280;2023-12-07T05:49:01;-1.10;99.90
8709;DHT22;4391;48.678;9.280;2023-12-07T05:51:28;-1.20;99.90
8709;DHT22;4391;48.678;9.280;2023-12-07T05:53:56;-1.30;99.90
8709;DHT22;4391;48.678;9.280;2023-12-07T05:56:23;-1.40;99.90
8709;DHT22;4391;48.678;9.280;2023-12-07T05:58:50;-1.40;99.90
8709;DHT22;4391;48.678;9.280;2023-12-07T06:01:17;-1.50;99.90
8709;DHT22;4391;48.678;9.280;2023-12-07T06:03:45;-1.60;99.90
8709;DHT22;4391;48.678;9.280;2023-12-07T06:06:11;-1.60;99.90
8709;DHT22;4391;48.678;9.280;2023-12-07T06:08:41;-1.40;99.90
8709;DHT22;4391;48.678;9.280;2023-12-07T06:11:09;-1.40;99.90
8709;DHT22;4391;48.678;9.280;2023-12-07T06:13:37;-1.50;99.90
8709;DHT22;4391;48.678;9.280;2023-12-07T06:16:04;-1.50;99.90
8709;DHT22;4391;48.678;9.280;2023-12-07T06:18:31;-1.50;99.90
8709;DHT22;4391;48.678;9.280;2023-12-07T06:20:58;-1.60;99.90
8709;DHT22;4391;48.678;9.280;2023-12-07T06:23:25;-1.70;99.90
8709;DHT22;4391;48.678;9.280;2023-12-07T06:25:52;-1.70;99.90
8709;DHT22;4391;48.678;9.280;2023-12-07T06:28:20;-1.70;99.90
8709;DHT22;4391;48.678;9.280;2023-12-07T06:30:47;-1.80;99.90
8709;DHT22;4391;48.678;9.280;2023-12-07T06:33:13;-1.80;99.90
8709;DHT22;4391;48.678;9.280;2023-12-07T06:35:40;-1.90;99.90
8709;DHT22;4391;48.678;9.280;2023-12-07T06:38:07;-1.90;99.90
8709;DHT22;4391;48.678;9.280;2023-12-07T06:40:34;-1.90;99.90
8709;DHT22;4391;48.678;9.280;2023-12-07T06:43:01;-1.80;99.90
8709;DHT22;4391;48.678;9.280;2023-12-07T06:45:29;-1.90;99.90
8709;DHT22;4391;48.678;9.280;2023-12-07T06:47:56;-1.90;99.90
8709;DHT22;4391;48.678;9.280;2023-12-07T06:50:23;-2.00;99.90
8709;DHT22;4391;48.678;9.280;2023-12-07T06:52:50;-2.00;99.90
8709;DHT22;4391;48.678;9.280;2023-12-07T06:55:16;-2.10;99.90
8709;DHT22;4391;48.678;9.280;2023-12-07T06:57:44;-2.20;99.90
8709;DHT22;4391;48.678;9.280;2023-12-07T07:00:12;-2.20;99.90
8709;DHT22;4391;48.678;9.280;2023-12-07T07:02:40;-2.30;99.90
8709;DHT22;4391;48.678;9.280;2023-12-07T07:05:07;-2.30;99.90
8709;DHT22;4391;48.678;9.280;2023-12-07T07:07:36;-2.20;99.90
8709;DHT22;4391;48.678;9.280;2023-12-07T07:10:04;-2.30;99.90
8709;DHT22;4391;48.678;9.280;2023-12-07T07:12:31;-2.30;99.90
8709;DHT22;4391;48.678;9.280;2023-12-07T07:14:58;-2.30;99.90
8709;DHT22;4391;48.678;9.280;2023-12-07T07:17:25;-2.30;99.90
8709;DHT22;4391;48.678;9.280;2023-12-07T07:19:53;-2.30;99.90
8709;DHT22;4391;48.678;9.280;2023-12-07T07:22:20;-2.20;99.90
8709;DHT22;4391;48.678;9.280;2023-12-07T07:24:47;-2.20;99.90
8709;DHT22;4391;48.678;9.280;2023-12-07T07:27:14;-2.30;99.90
8709;DHT22;4391;48.678;9.280;2023-12-07T07:29:41;-2.30;99.90
8709;DHT22;4391;48.678;9.280;2023-12-07T07:32:09;-2.20;99.90
8709;DHT22;4391;48.678;9.280;2023-12-07T07:34:36;-2.00;99.90
8709;DHT22;4391;48.678;9.280;2023-12-07T07:37:05;-1.80;99.90
8709;DHT22;4391;48.678;9.280;2023-12-07T07:39:32;-1.60;99.90
8709;DHT22;4391;48.678;9.280;2023-12-07T07:42:00;-1.50;99.90
8709;DHT22;4391;48.678;9.280;2023-12-07T07:44:27;-1.50;99.90
8709;DHT22;4391;48.678;9.280;2023-12-07T07:46:55;-1.60;99.90
8709;DHT22;4391;48.678;9.280;2023-12-07T07:49:22;-1.70;99.90
8709;DHT22;4391;48.678;9.280;2023-12-07T07:51:49;-1.70;99.90
8709;DHT22;4391;48.678;9.280;2023-12-07T07:54:17;-1.80;99.90
8709;DHT22;4391;48.678;9.280;2023-12-07T07:56:44;-1.80;99.90
8709;DHT22;4391;48.678;9.280;2023-12-07T07:59:11;-1.80;99.90
8709;DHT22;4391;48.678;9.280;2023-12-07T08:01:38;-1.80;99.90
8709;DHT22;4391;48.678;9.280;2023-12-07T08:04:05;-1.80;99.90
8709;DHT22;4391;48.678;9.280;2023-12-07T08:06:32;-1.80;99.90
8709;DHT22;4391;48.678;9.280;2023-12-07T08:08:59;-1.80;99.90
8709;DHT22;4391;48.678;9.280;2023-12-07T08:11:28;-1.80;99.90
8709;DHT22;4391;48.678;9.280;2023-12-07T08:13:54;-1.80;99.90
8709;DHT22;4391;48.678;9.280;2023-12-07T08:16:22;-1.70;99.90
8709;DHT22;4391;48.678;9.280;2023-12-07T08:18:49;-1.60;99.90
8709;DHT22;4391;48.678;9.280;2023-12-07T08:21:20;-1.60;99.90
8709;DHT22;4391;48.678;9.280;2023-12-07T08:23:47;-1.50;99.90
8709;DHT22;4391;48.678;9.280;2023-12-07T08:26:14;-1.30;99.90
8709;DHT22;4391;48.678;9.280;2023-12-07T08:28:43;-1.20;99.90
8709;DHT22;4391;48.678;9.280;2023-12-07T08:31:10;-1.00;99.90
8709;DHT22;4391;48.678;9.280;2023-12-07T08:33:37;-0.80;99.90
8709;DHT22;4391;48.678;9.280;2023-12-07T08:36:05;-0.60;99.90
8709;DHT22;4391;48.678;9.280;2023-12-07T08:38:32;-0.30;99.90
8709;DHT22;4391;48.678;9.280;2023-12-07T08:40:59;0.00;99.90
8709;DHT22;4391;48.678;9.280;2023-12-07T08:43:26;0.20;99.90
8709;DHT22;4391;48.678;9.280;2023-12-07T08:45:57;0.40;99.90
8709;DHT22;4391;48.678;9.280;2023-12-07T08:48:24;0.70;99.90
8709;DHT22;4391;48.678;9.280;2023-12-07T08:50:51;1.00;99.90
8709;DHT22;4391;48.678;9.280;2023-12-07T08:53:18;1.30;99.90
8709;DHT22;4391;48.678;9.280;2023-12-07T08:55:45;1.50;99.90
8709;DHT22;4391;48.678;9.280;2023-12-07T08:58:12;1.70;99.90
8709;DHT22;4391;48.678;9.280;2023-12-07T09:00:38;2.10;99.90
8709;DHT22;4391;48.678;9.280;2023-12-07T09:03:07;2.20;99.90
8709;DHT22;4391;48.678;9.280;2023-12-07T09:05:33;2.40;93.70
8709;DHT22;4391;48.678;9.280;2023-12-07T09:08:00;2.70;33.40
8709;DHT22;4391;48.678;9.280;2023-12-07T09:10:27;2.90;1.00
8709;DHT22;4391;48.678;9.280;2023-12-07T09:12:54;3.20;1.00
8709;DHT22;4391;48.678;9.280;2023-12-07T09:15:21;3.20;99.90
8709;DHT22;4391;48.678;9.280;2023-12-07T09:17:48;3.40;1.00
8709;DHT22;4391;48.678;9.280;2023-12-07T09:20:17;3.60;99.90
8709;DHT22;4391;48.678;9.280;2023-12-07T09:22:44;3.80;1.00
8709;DHT22;4391;48.678;9.280;2023-12-07T09:25:12;3.90;99.90
8709;DHT22;4391;48.678;9.280;2023-12-07T09:27:39;3.90;99.90
8709;DHT22;4391;48.678;9.280;2023-12-07T09:30:08;4.10;22.60
8709;DHT22;4391;48.678;9.280;2023-12-07T09:32:36;4.20;1.00
8709;DHT22;4391;48.678;9.280;2023-12-07T09:35:04;4.20;1.00
8709;DHT22;4391;48.678;9.280;2023-12-07T09:37:34;4.30;1.00
8709;DHT22;4391;48.678;9.280;2023-12-07T09:40:01;4.30;1.00
8709;DHT22;4391;48.678;9.280;2023-12-07T09:42:30;4.20;1.00
8709;DHT22;4391;48.678;9.280;2023-12-07T09:44:57;4.30;1.00
8709;DHT22;4391;48.678;9.280;2023-12-07T09:47:26;4.50;1.00
8709;DHT22;4391;48.678;9.280;2023-12-07T09:49:53;4.70;1.00
8709;DHT22;4391;48.678;9.280;2023-12-07T09:52:21;5.00;1.00
8709;DHT22;4391;48.678;9.280;2023-12-07T09:54:50;5.20;1.00
8709;DHT22;4391;48.678;9.280;2023-12-07T09:57:18;5.20;1.00
8709;DHT22;4391;48.678;9.280;2023-12-07T09:59:45;5.50;1.00
8709;DHT22;4391;48.678;9.280;2023-12-07T10:02:13;5.40;1.00
8709;DHT22;4391;48.678;9.280;2023-12-07T10:04:40;5.60;1.00
8709;DHT22;4391;48.678;9.280;2023-12-07T10:07:07;5.80;1.00
8709;DHT22;4391;48.678;9.280;2023-12-07T10:09:34;5.90;1.00
8709;DHT22;4391;48.678;9.280;2023-12-07T10:12:06;6.20;1.00
8709;DHT22;4391;48.678;9.280;2023-12-07T10:14:33;6.40;1.00
8709;DHT22;4391;48.678;9.280;2023-12-07T10:17:00;6.50;1.00
8709;DHT22;4391;48.678;9.280;2023-12-07T10:19:27;6.60;1.00
8709;DHT22;4391;48.678;9.280;2023-12-07T10:21:54;6.70;1.00
8709;DHT22;4391;48.678;9.280;2023-12-07T10:24:22;6.70;1.00
8709;DHT22;4391;48.678;9.280;2023-12-07T10:26:51;6.90;1.00
8709;DHT22;4391;48.678;9.280;2023-12-07T10:29:20;6.90;1.00
8709;DHT22;4391;48.678;9.280;2023-12-07T10:31:48;7.20;1.00
8709;DHT22;4391;48.678;9.280;2023-12-07T10:34:18;7.50;1.00
8709;DHT22;4391;48.678;9.280;2023-12-07T10:36:46;7.70;1.00
8709;DHT22;4391;48.678;9.280;2023-12-07T10:39:14;8.00;1.00
8709;DHT22;4391;48.678;9.280;2023-12-07T10:41:43;8.40;1.00
8709;DHT22;4391;48.678;9.280;2023-12-07T10:44:13;8.70;99.90
8709;DHT22;4391;48.678;9.280;2023-12-07T10:46:43;9.00;99.90
8709;DHT22;4391;48.678;9.280;2023-12-07T10:49:15;9.30;99.90
8709;DHT22;4391;48.678;9.280;2023-12-07T10:51:49;9.60;99.90
8709;DHT22;4391;48.678;9.280;2023-12-07T10:54:19;9.70;99.90
8709;DHT22;4391;48.678;9.280;2023-12-07T10:56:48;10.50;99.90
8709;DHT22;4391;48.678;9.280;2023-12-07T10:59:16;10.70;99.90
8709;DHT22;4391;48.678;9.280;2023-12-07T11:01:45;11.10;99.90
8709;DHT22;4391;48.678;9.280;2023-12-07T11:04:14;11.40;99.90
8709;DHT22;4391;48.678;9.280;2023-12-07T11:06:44;11.40;99.90
8709;DHT22;4391;48.678;9.280;2023-12-07T11:09:15;11.90;99.90
8709;DHT22;4391;48.678;9.280;2023-12-07T11:11:47;12.40;99.90
8709;DHT22;4391;48.678;9.280;2023-12-07T11:14:16;12.80;99.90
8709;DHT22;4391;48.678;9.280;2023-12-07T11:16:45;12.90;99.90
8709;DHT22;4391;48.678;9.280;2023-12-07T11:19:46;12.60;99.90
8709;DHT22;4391;48.678;9.280;2023-12-07T11:22:13;12.90;99.90
8709;DHT22;4391;48.678;9.280;2023-12-07T11:24:52;13.30;99.90
8709;DHT22;4391;48.678;9.280;2023-12-07T11:27:21;13.30;99.90
8709;DHT22;4391;48.678;9.280;2023-12-07T11:29:48;13.40;99.90
8709;DHT22;4391;48.678;9.280;2023-12-07T11:32:17;13.60;99.90
8709;DHT22;4391;48.678;9.280;2023-12-07T11:34:44;13.70;99.90
8709;DHT22;4391;48.678;9.280;2023-12-07T11:37:14;13.60;99.90
8709;DHT22;4391;48.678;9.280;2023-12-07T11:39:41;13.90;99.90
8709;DHT22;4391;48.678;9.280;2023-12-07T11:42:11;14.00;99.90
8709;DHT22;4391;48.678;9.280;2023-12-07T11:44:39;14.00;99.90
8709;DHT22;4391;48.678;9.280;2023-12-07T11:47:08;13.90;99.90
8709;DHT22;4391;48.678;9.280;2023-12-07T11:49:36;14.10;99.90
8709;DHT22;4391;48.678;9.280;2023-12-07T11:52:13;13.90;99.90
8709;DHT22;4391;48.678;9.280;2023-12-07T11:54:43;14.30;99.90
8709;DHT22;4391;48.678;9.280;2023-12-07T11:57:10;14.20;99.90
8709;DHT22;4391;48.678;9.280;2023-12-07T11:59:37;14.80;99.90
8709;DHT22;4391;48.678;9.280;2023-12-07T12:02:04;15.30;99.90
8709;DHT22;4391;48.678;9.280;2023-12-07T12:04:31;15.50;99.90
8709;DHT22;4391;48.678;9.280;2023-12-07T12:06:59;16.00;99.90
8709;DHT22;4391;48.678;9.280;2023-12-07T12:09:26;16.40;99.90
8709;DHT22;4391;48.678;9.280;2023-12-07T12:11:53;16.60;99.90
8709;DHT22;4391;48.678;9.280;2023-12-07T12:14:20;16.60;99.90
8709;DHT22;4391;48.678;9.280;2023-12-07T12:16:47;16.30;99.90
8709;DHT22;4391;48.678;9.280;2023-12-07T12:19:14;16.20;99.90
8709;DHT22;4391;48.678;9.280;2023-12-07T12:21:41;15.80;99.90
8709;DHT22;4391;48.678;9.280;2023-12-07T12:24:11;14.90;99.90
8709;DHT22;4391;48.678;9.280;2023-12-07T12:26:41;14.40;99.90
8709;DHT22;4391;48.678;9.280;2023-12-07T12:29:08;14.10;99.90
8709;DHT22;4391;48.678;9.280;2023-12-07T12:31:37;13.80;99.90
8709;DHT22;4391;48.678;9.280;2023-12-07T12:34:06;13.50;99.90
8709;DHT22;4391;48.678;9.280;2023-12-07T12:36:33;13.80;99.90
8709;DHT22;4391;48.678;9.280;2023-12-07T12:39:00;14.10;99.90
8709;DHT22;4391;48.678;9.280;2023-12-07T12:41:30;14.40;99.90
8709;DHT22;4391;48.678;9.280;2023-12-07T12:43:58;14.20;99.90
8709;DHT22;4391;48.678;9.280;2023-12-07T12:46:25;14.60;99.90
8709;DHT22;4391;48.678;9.280;2023-12-07T12:48:53;15.10;99.90
8709;DHT22;4391;48.678;9.280;2023-12-07T12:51:21;15.20;99.90
8709;DHT22;4391;48.678;9.280;2023-12-07T12:53:51;14.90;99.90
8709;DHT22;4391;48.678;9.280;2023-12-07T12:56:19;15.00;99.90
8709;DHT22;4391;48.678;9.280;2023-12-07T12:58:48;14.70;99.90
8709;DHT22;4391;48.678;9.280;2023-12-07T13:01:15;15.00;99.90
8709;DHT22;4391;48.678;9.280;2023-12-07T13:03:43;15.10;99.90
8709;DHT22;4391;48.678;9.280;2023-12-07T13:06:12;15.00;99.90
8709;DHT22;4391;48.678;9.280;2023-12-07T13:08:40;14.50;99.90
8709;DHT22;4391;48.678;9.280;2023-12-07T13:11:07;14.40;99.90
8709;DHT22;4391;48.678;9.280;2023-12-07T13:13:36;15.00;99.90
8709;DHT22;4391;48.678;9.280;2023-12-07T13:16:05;14.80;99.90
8709;DHT22;4391;48.678;9.280;2023-12-07T13:18:32;13.90;99.90
8709;DHT22;4391;48.678;9.280;2023-12-07T13:20:59;13.10;99.90
8709;DHT22;4391;48.678;9.280;2023-12-07T13:23:27;11.70;99.90
8709;DHT22;4391;48.678;9.280;2023-12-07T13:25:54;10.40;99.90
8709;DHT22;4391;48.678;9.280;2023-12-07T13:28:21;9.50;99.90
8709;DHT22;4391;48.678;9.280;2023-12-07T13:30:48;8.80;99.90
8709;DHT22;4391;48.678;9.280;2023-12-07T13:33:17;8.30;99.90
8709;DHT22;4391;48.678;9.280;2023-12-07T13:35:44;7.70;99.90
8709;DHT22;4391;48.678;9.280;2023-12-07T13:38:11;7.40;99.90
8709;DHT22;4391;48.678;9.280;2023-12-07T13:40:38;7.20;99.90
8709;DHT22;4391;48.678;9.280;2023-12-07T13:43:05;7.00;99.90
8709;DHT22;4391;48.678;9.280;2023-12-07T13:45:32;6.80;99.90
8709;DHT22;4391;48.678;9.280;2023-12-07T13:47:59;6.60;99.90
8709;DHT22;4391;48.678;9.280;2023-12-07T13:50:27;6.50;99.90
8709;DHT22;4391;48.678;9.280;2023-12-07T13:52:54;6.40;99.90
8709;DHT22;4391;48.678;9.280;2023-12-07T13:55:21;6.30;99.90
8709;DHT22;4391;48.678;9.280;2023-12-07T13:57:49;6.40;99.90
8709;DHT22;4391;48.678;9.280;2023-12-07T14:00:18;6.20;99.90
8709;DHT22;4391;48.678;9.280;2023-12-07T14:02:45;6.10;99.90
8709;DHT22;4391;48.678;9.280;2023-12-07T14:05:12;5.90;99.90
8709;DHT22;4391;48.678;9.280;2023-12-07T14:07:42;5.90;99.90
8709;DHT22;4391;48.678;9.280;2023-12-07T14:10:09;5.80;99.90
8709;DHT22;4391;48.678;9.280;2023-12-07T14:12:36;5.70;99.90
8709;DHT22;4391;48.678;9.280;2023-12-07T14:15:04;5.70;99.90
8709;DHT22;4391;48.678;9.280;2023-12-07T14:17:31;5.70;99.90
8709;DHT22;4391;48.678;9.280;2023-12-07T14:20:03;5.60;99.90
8709;DHT22;4391;48.678;9.280;2023-12-07T14:22:30;5.50;99.90
8709;DHT22;4391;48.678;9.280;2023-12-07T14:24:58;5.40;99.90
8709;DHT22;4391;48.678;9.280;2023-12-07T14:27:26;5.30;99.90
8709;DHT22;4391;48.678;9.280;2023-12-07T14:29:53;5.30;99.90
8709;DHT22;4391;48.678;9.280;2023-12-07T14:32:20;5.10;99.90
8709;DHT22;4391;48.678;9.280;2023-12-07T14:34:47;4.90;99.90
8709;DHT22;4391;48.678;9.280;2023-12-07T14:37:14;4.80;99.90
8709;DHT22;4391;48.678;9.280;2023-12-07T14:39:41;4.70;99.90
8709;DHT22;4391;48.678;9.280;2023-12-07T14:42:11;4.50;99.90
8709;DHT22;4391;48.678;9.280;2023-12-07T14:44:37;4.40;99.90
8709;DHT22;4391;48.678;9.280;2023-12-07T14:47:04;4.30;99.90
8709;DHT22;4391;48.678;9.280;2023-12-07T14:49:32;4.10;99.90
8709;DHT22;4391;48.678;9.280;2023-12-07T14:51:59;4.00;99.90
8709;DHT22;4391;48.678;9.280;2023-12-07T14:54:26;3.90;99.90
8709;DHT22;4391;48.678;9.280;2023-12-07T14:56:53;3.80;99.90
8709;DHT22;4391;48.678;9.280;2023-12-07T14:59:23;3.70;99.90
8709;DHT22;4391;48.678;9.280;2023-12-07T15:01:50;3.60;99.90
8709;DHT22;4391;48.678;9.280;2023-12-07T15:04:17;3.50;99.90
8709;DHT22;4391;48.678;9.280;2023-12-07T15:06:44;3.30;99.90
8709;DHT22;4391;48.678;9.280;2023-12-07T15:09:11;3.10;99.90
8709;DHT22;4391;48.678;9.280;2023-12-07T15:11:39;3.00;99.90
8709;DHT22;4391;48.678;9.280;2023-12-07T15:14:06;2.80;99.90
8709;DHT22;4391;48.678;9.280;2023-12-07T15:16:35;2.80;99.90
8709;DHT22;4391;48.678;9.280;2023-12-07T15:19:01;2.70;99.90
8709;DHT22;4391;48.678;9.280;2023-12-07T15:21:28;2.60;99.90
8709;DHT22;4391;48.678;9.280;2023-12-07T15:23:55;2.50;99.90
8709;DHT22;4391;48.678;9.280;2023-12-07T15:26:22;2.40;99.90
8709;DHT22;4391;48.678;9.280;2023-12-07T15:28:49;2.30;99.90
8709;DHT22;4391;48.678;9.280;2023-12-07T15:31:16;2.30;99.90
8709;DHT22;4391;48.678;9.280;2023-12-07T15:33:45;2.20;99.90
8709;DHT22;4391;48.678;9.280;2023-12-07T15:36:12;2.10;99.90
8709;DHT22;4391;48.678;9.280;2023-12-07T15:38:39;2.00;99.90
8709;DHT22;4391;48.678;9.280;2023-12-07T15:41:08;1.90;99.90
8709;DHT22;4391;48.678;9.280;2023-12-07T15:43:38;1.80;99.90
8709;DHT22;4391;48.678;9.280;2023-12-07T15:46:04;1.80;99.90
8709;DHT22;4391;48.678;9.280;2023-12-07T15:48:33;1.80;99.90
8709;DHT22;4391;48.678;9.280;2023-12-07T15:51:02;1.80;99.90
8709;DHT22;4391;48.678;9.280;2023-12-07T15:53:30;1.70;99.90
8709;DHT22;4391;48.678;9.280;2023-12-07T15:55:57;1.70;99.90
8709;DHT22;4391;48.678;9.280;2023-12-07T15:58:24;1.70;99.90
8709;DHT22;4391;48.678;9.280;2023-12-07T16:00:50;1.60;99.90
8709;DHT22;4391;48.678;9.280;2023-12-07T16:05:47;1.40;99.90
8709;DHT22;4391;48.678;9.280;2023-12-07T16:08:15;1.30;99.90
8709;DHT22;4391;48.678;9.280;2023-12-07T16:10:42;1.20;99.90
8709;DHT22;4391;48.678;9.280;2023-12-07T16:13:09;1.10;99.90
8709;DHT22;4391;48.678;9.280;2023-12-07T16:15:37;1.00;99.90
8709;DHT22;4391;48.678;9.280;2023-12-07T16:18:03;1.00;99.90